sensor_id;sensor_type;location;lat;lon;timestamp;pressure;altitude;pressure_sealevel;temperature;humidity
10462;BME280;5278;42.656;23.374;2023-05-01T00:02:18;94594.84;;;14.20;75.78
10462;BME280;5278;42.656;23.374;2023-05-01T00:04:45;94599.06;;;14.14;76.21
10462;BME280;5278;42.656;23.374;2023-05-01T00:07:12;94582.97;;;14.11;77.35
10462;BME280;5278;42.656;23.374;2023-05-01T00:09:40;94598.88;;;14.09;77.72
10462;BME280;5278;42.656;23.374;2023-05-01T00:12:07;94593.63;;;14.09;76.54
10462;BME280;5278;42.656;23.374;2023-05-01T00:14:34;94601.66;;;14.08;77.77
10462;BME280;5278;42.656;23.374;2023-05-01T00:17:01;94608.47;;;14.02;78.41
10462;BME280;5278;42.656;23.374;2023-05-01T00:19:28;94599.19;;;14.00;78.48
10462;BME280;5278;42.656;23.374;2023-05-01T00:21:55;94595.78;;;13.93;78.11
10462;BME280;5278;42.656;23.374;2023-05-01T00:24:22;94603.44;;;13.94;78.40
10462;BME280;5278;42.656;23.374;2023-05-01T00:26:50;94619.28;;;13.93;78.04
10462;BME280;5278;42.656;23.374;2023-05-01T00:29:17;94607.22;;;13.92;78.27
10462;BME280;5278;42.656;23.374;2023-05-01T00:31:44;94606.22;;;13.93;77.76
10462;BME280;5278;42.656;23.374;2023-05-01T00:34:11;94607.84;;;13.94;77.63
10462;BME280;5278;42.656;23.374;2023-05-01T00:36:38;94618.88;;;13.96;77.24
10462;BME280;5278;42.656;23.374;2023-05-01T00:39:05;94614.47;;;13.90;77.14
10462;BME280;5278;42.656;23.374;2023-05-01T00:41:33;94585.81;;;13.62;77.21
10462;BME280;5278;42.656;23.374;2023-05-01T00:44:01;94618.03;;;13.82;77.33
10462;BME280;5278;42.656;23.374;2023-05-01T00:46:28;94616.63;;;13.79;77.78
10462;BME280;5278;42.656;23.374;2023-05-01T00:48:56;94613.56;;;13.76;78.39
10462;BME280;5278;42.656;23.374;2023-05-01T00:51:23;94617.81;;;13.77;78.61
10462;BME280;5278;42.656;23.374;2023-05-01T00:53:51;94615.78;;;13.72;78.86
10462;BME280;5278;42.656;23.374;2023-05-01T00:56:18;94628.22;;;13.70;79.68
10462;BME280;5278;42.656;23.374;2023-05-01T00:58:49;94612.31;;;13.65;79.29
10462;BME280;5278;42.656;23.374;2023-05-01T01:01:18;94630.19;;;13.62;79.45
10462;BME280;5278;42.656;23.374;2023-05-01T01:03:46;94626.94;;;13.53;79.57
10462;BME280;5278;42.656;23.374;2023-05-01T01:06:17;94632.09;;;13.47;79.59
10462;BME280;5278;42.656;23.374;2023-05-01T01:08:53;94629.06;;;13.43;79.85
10462;BME280;5278;42.656;23.374;2023-05-01T01:11:31;94629.44;;;13.40;80.28
10462;BME280;5278;42.656;23.374;2023-05-01T01:14:07;94634.06;;;13.38;80.80
10462;BME280;5278;42.656;23.374;2023-05-01T01:16:44;94627.63;;;13.34;80.71
10462;BME280;5278;42.656;23.374;2023-05-01T01:22:19;94639.41;;;13.30;80.96
10462;BME280;5278;42.656;23.374;2023-05-01T01:25:03;94650.06;;;13.28;80.93
10462;BME280;5278;42.656;23.374;2023-05-01T01:27:42;94641.03;;;13.31;80.92
10462;BME280;5278;42.656;23.374;2023-05-01T01:30:45;94644.41;;;13.25;81.68
10462;BME280;5278;42.656;23.374;2023-05-01T01:33:41;94644.59;;;13.23;82.49
10462;BME280;5278;42.656;23.374;2023-05-01T01:36:18;94643.56;;;13.18;82.77
10462;BME280;5278;42.656;23.374;2023-05-01T01:38:52;94657.78;;;13.15;82.81
10462;BME280;5278;42.656;23.374;2023-05-01T01:41:23;94651.31;;;13.11;83.04
10462;BME280;5278;42.656;23.374;2023-05-01T01:43:59;94648.25;;;13.08;84.56
10462;BME280;5278;42.656;23.374;2023-05-01T01:46:29;94644.19;;;12.99;85.57
10462;BME280;5278;42.656;23.374;2023-05-01T01:49:02;94647.34;;;12.94;86.03
10462;BME280;5278;42.656;23.374;2023-05-01T01:51:30;94653.69;;;12.85;86.89
10462;BME280;5278;42.656;23.374;2023-05-01T01:53:59;94642.22;;;12.79;87.22
10462;BME280;5278;42.656;23.374;2023-05-01T01:56:28;94650.84;;;12.80;87.88
10462;BME280;5278;42.656;23.374;2023-05-01T01:59:00;94642.47;;;12.84;87.93
10462;BME280;5278;42.656;23.374;2023-05-01T02:01:28;94633.19;;;12.82;87.79
10462;BME280;5278;42.656;23.374;2023-05-01T02:03:55;94640.09;;;12.89;87.93
10462;BME280;5278;42.656;23.374;2023-05-01T02:06:26;94644.81;;;12.79;87.93
10462;BME280;5278;42.656;23.374;2023-05-01T02:08:55;94644.44;;;12.82;87.52
10462;BME280;5278;42.656;23.374;2023-05-01T02:11:24;94644.81;;;12.79;87.66
10462;BME280;5278;42.656;23.374;2023-05-01T02:13:53;94649.22;;;12.79;87.02
10462;BME280;5278;42.656;23.374;2023-05-01T02:16:21;94652.75;;;12.71;87.78
10462;BME280;5278;42.656;23.374;2023-05-01T02:18:50;94653.50;;;12.65;87.04
10462;BME280;5278;42.656;23.374;2023-05-01T02:21:18;94647.84;;;12.62;86.83
10462;BME280;5278;42.656;23.374;2023-05-01T02:23:48;94636.63;;;12.61;86.89
10462;BME280;5278;42.656;23.374;2023-05-01T02:26:16;94640.59;;;12.57;86.79
10462;BME280;5278;42.656;23.374;2023-05-01T02:28:43;94636.13;;;12.51;86.34
10462;BME280;5278;42.656;23.374;2023-05-01T02:31:11;94640.91;;;12.47;87.03
10462;BME280;5278;42.656;23.374;2023-05-01T02:33:37;94645.88;;;12.42;87.66
10462;BME280;5278;42.656;23.374;2023-05-01T02:36:05;94637.97;;;12.36;87.33
10462;BME280;5278;42.656;23.374;2023-05-01T02:38:32;94635.81;;;12.39;87.42
10462;BME280;5278;42.656;23.374;2023-05-01T02:41:01;94631.59;;;12.38;87.74
10462;BME280;5278;42.656;23.374;2023-05-01T02:43:30;94636.00;;;12.38;88.04
10462;BME280;5278;42.656;23.374;2023-05-01T02:45:58;94617.13;;;12.15;88.21
10462;BME280;5278;42.656;23.374;2023-05-01T02:48:27;94640.44;;;12.23;88.70
10462;BME280;5278;42.656;23.374;2023-05-01T02:50:56;94628.88;;;12.11;88.89
10462;BME280;5278;42.656;23.374;2023-05-01T02:53:24;94641.28;;;12.08;88.85
10462;BME280;5278;42.656;23.374;2023-05-01T02:55:51;94650.25;;;12.06;88.80
10462;BME280;5278;42.656;23.374;2023-05-01T02:58:19;94649.56;;;11.97;89.17
10462;BME280;5278;42.656;23.374;2023-05-01T03:00:48;94646.88;;;11.91;88.92
10462;BME280;5278;42.656;23.374;2023-05-01T03:03:15;94650.22;;;11.85;89.02
10462;BME280;5278;42.656;23.374;2023-05-01T03:05:42;94645.78;;;11.71;89.75
10462;BME280;5278;42.656;23.374;2023-05-01T03:08:09;94669.97;;;11.79;89.75
10462;BME280;5278;42.656;23.374;2023-05-01T03:10:38;94663.41;;;11.83;89.52
10462;BME280;5278;42.656;23.374;2023-05-01T03:13:06;94667.38;;;11.79;90.01
10462;BME280;5278;42.656;23.374;2023-05-01T03:15:34;94667.38;;;11.79;90.21
10462;BME280;5278;42.656;23.374;2023-05-01T03:18:01;94667.72;;;11.76;91.22
10462;BME280;5278;42.656;23.374;2023-05-01T03:20:28;94659.16;;;11.68;91.87
10462;BME280;5278;42.656;23.374;2023-05-01T03:22:55;94664.75;;;11.64;91.81
10462;BME280;5278;42.656;23.374;2023-05-01T03:25:23;94663.50;;;11.60;91.29
10462;BME280;5278;42.656;23.374;2023-05-01T03:27:50;94677.38;;;11.53;91.67
10462;BME280;5278;42.656;23.374;2023-05-01T03:30:17;94674.34;;;11.49;91.89
10462;BME280;5278;42.656;23.374;2023-05-01T03:32:46;94676.94;;;11.49;91.68
10462;BME280;5278;42.656;23.374;2023-05-01T03:35:12;94683.56;;;11.52;92.26
10462;BME280;5278;42.656;23.374;2023-05-01T03:37:39;94680.16;;;11.51;92.44
10462;BME280;5278;42.656;23.374;2023-05-01T03:40:07;94678.38;;;11.52;90.97
10462;BME280;5278;42.656;23.374;2023-05-01T03:42:34;94680.69;;;11.47;88.63
10462;BME280;5278;42.656;23.374;2023-05-01T03:45:01;94683.84;;;11.42;88.21
10462;BME280;5278;42.656;23.374;2023-05-01T03:47:28;94685.91;;;11.47;88.78
10462;BME280;5278;42.656;23.374;2023-05-01T03:49:56;94692.09;;;11.46;88.34
10462;BME280;5278;42.656;23.374;2023-05-01T03:52:23;94695.88;;;11.43;88.67
10462;BME280;5278;42.656;23.374;2023-05-01T03:54:50;94721.50;;;11.46;87.77
10462;BME280;5278;42.656;23.374;2023-05-01T03:57:17;94570.50;;;10.66;86.93
10462;BME280;5278;42.656;23.374;2023-05-01T03:59:45;94690.50;;;11.45;86.39
10462;BME280;5278;42.656;23.374;2023-05-01T04:02:12;94705.09;;;11.46;86.45
10462;BME280;5278;42.656;23.374;2023-05-01T04:04:39;94703.25;;;11.54;86.20
10462;BME280;5278;42.656;23.374;2023-05-01T04:07:07;94703.84;;;11.71;85.64
10462;BME280;5278;42.656;23.374;2023-05-01T04:09:34;94702.47;;;11.83;84.54
10462;BME280;5278;42.656;23.374;2023-05-01T04:12:01;94705.75;;;12.06;84.20
10462;BME280;5278;42.656;23.374;2023-05-01T04:14:29;94701.31;;;12.36;82.44
10462;BME280;5278;42.656;23.374;2023-05-01T04:16:57;94703.72;;;12.74;81.46
10462;BME280;5278;42.656;23.374;2023-05-01T04:19:24;94701.50;;;13.13;80.06
10462;BME280;5278;42.656;23.374;2023-05-01T04:21:51;94690.56;;;13.52;78.83
10462;BME280;5278;42.656;23.374;2023-05-01T04:24:20;94693.41;;;13.92;76.84
10462;BME280;5278;42.656;23.374;2023-05-01T04:26:46;94691.97;;;14.30;74.63
10462;BME280;5278;42.656;23.374;2023-05-01T04:29:14;94696.16;;;14.65;71.92
10462;BME280;5278;42.656;23.374;2023-05-01T04:31:41;94693.19;;;15.01;70.53
10462;BME280;5278;42.656;23.374;2023-05-01T04:34:08;94685.75;;;15.44;68.57
10462;BME280;5278;42.656;23.374;2023-05-01T04:36:35;94691.38;;;15.81;66.88
10462;BME280;5278;42.656;23.374;2023-05-01T04:39:02;94692.47;;;16.24;65.22
10462;BME280;5278;42.656;23.374;2023-05-01T04:41:30;94696.72;;;16.76;62.10
10462;BME280;5278;42.656;23.374;2023-05-01T04:43:57;94698.09;;;17.10;60.99
10462;BME280;5278;42.656;23.374;2023-05-01T04:46:24;94692.72;;;17.55;59.37
10462;BME280;5278;42.656;23.374;2023-05-01T04:48:51;94691.56;;;17.94;57.73
10462;BME280;5278;42.656;23.374;2023-05-01T04:51:17;94698.81;;;18.35;56.27
10462;BME280;5278;42.656;23.374;2023-05-01T04:53:45;94693.66;;;18.76;54.65
10462;BME280;5278;42.656;23.374;2023-05-01T04:56:12;94696.44;;;19.23;53.35
10462;BME280;5278;42.656;23.374;2023-05-01T04:58:40;94717.06;;;19.56;52.38
10462;BME280;5278;42.656;23.374;2023-05-01T05:01:07;94700.09;;;19.87;51.01
10462;BME280;5278;42.656;23.374;2023-05-01T05:03:34;94700.41;;;20.25;49.86
10462;BME280;5278;42.656;23.374;2023-05-01T05:06:01;94623.09;;;20.13;48.39
10462;BME280;5278;42.656;23.374;2023-05-01T05:08:28;94701.06;;;20.84;47.60
10462;BME280;5278;42.656;23.374;2023-05-01T05:10:56;94705.94;;;21.03;47.17
10462;BME280;5278;42.656;23.374;2023-05-01T05:13:24;94710.97;;;21.33;46.77
10462;BME280;5278;42.656;23.374;2023-05-01T05:15:53;94711.41;;;21.75;45.17
10462;BME280;5278;42.656;23.374;2023-05-01T05:18:19;94713.75;;;22.05;44.46
10462;BME280;5278;42.656;23.374;2023-05-01T05:20:46;94707.19;;;22.29;43.28
10462;BME280;5278;42.656;23.374;2023-05-01T05:23:13;94714.84;;;22.69;42.81
10462;BME280;5278;42.656;23.374;2023-05-01T05:25:40;94717.13;;;23.04;41.90
10462;BME280;5278;42.656;23.374;2023-05-01T05:28:07;94710.47;;;23.29;40.99
10462;BME280;5278;42.656;23.374;2023-05-01T05:30:34;94722.94;;;23.55;40.37
10462;BME280;5278;42.656;23.374;2023-05-01T05:33:03;94713.56;;;23.74;40.29
10462;BME280;5278;42.656;23.374;2023-05-01T05:35:30;94737.03;;;23.92;40.03
10462;BME280;5278;42.656;23.374;2023-05-01T05:37:57;94717.19;;;24.00;40.05
10462;BME280;5278;42.656;23.374;2023-05-01T05:40:24;94662.34;;;23.79;39.43
10462;BME280;5278;42.656;23.374;2023-05-01T05:42:50;94714.75;;;24.30;39.29
10462;BME280;5278;42.656;23.374;2023-05-01T05:45:17;94723.16;;;24.64;38.52
10462;BME280;5278;42.656;23.374;2023-05-01T05:47:44;94731.22;;;24.84;38.20
10462;BME280;5278;42.656;23.374;2023-05-01T05:50:13;94723.06;;;25.06;37.67
10462;BME280;5278;42.656;23.374;2023-05-01T05:52:40;94727.13;;;25.29;37.16
10462;BME280;5278;42.656;23.374;2023-05-01T05:55:08;94722.88;;;25.43;37.05
10462;BME280;5278;42.656;23.374;2023-05-01T05:57:35;94726.41;;;25.84;38.18
10462;BME280;5278;42.656;23.374;2023-05-01T06:00:02;94731.19;;;26.33;36.61
10462;BME280;5278;42.656;23.374;2023-05-01T06:02:31;94729.44;;;26.82;35.36
10462;BME280;5278;42.656;23.374;2023-05-01T06:04:57;94723.94;;;27.23;34.37
10462;BME280;5278;42.656;23.374;2023-05-01T06:07:26;94727.19;;;27.64;33.41
10462;BME280;5278;42.656;23.374;2023-05-01T06:09:53;94725.47;;;27.78;33.00
10462;BME280;5278;42.656;23.374;2023-05-01T06:12:22;94730.50;;;28.18;32.64
10462;BME280;5278;42.656;23.374;2023-05-01T06:14:50;94734.91;;;28.33;31.98
10462;BME280;5278;42.656;23.374;2023-05-01T06:17:18;94734.91;;;28.33;32.05
10462;BME280;5278;42.656;23.374;2023-05-01T06:19:44;94733.78;;;28.63;31.52
10462;BME280;5278;42.656;23.374;2023-05-01T06:22:11;94736.31;;;28.78;31.43
10462;BME280;5278;42.656;23.374;2023-05-01T06:24:40;94736.69;;;28.90;30.91
10462;BME280;5278;42.656;23.374;2023-05-01T06:27:06;94728.06;;;28.98;30.60
10462;BME280;5278;42.656;23.374;2023-05-01T06:29:33;94733.22;;;29.14;30.29
10462;BME280;5278;42.656;23.374;2023-05-01T06:32:01;94736.66;;;29.38;30.04
10462;BME280;5278;42.656;23.374;2023-05-01T06:34:28;94702.72;;;29.33;30.24
10462;BME280;5278;42.656;23.374;2023-05-01T06:36:55;94730.88;;;29.68;29.90
10462;BME280;5278;42.656;23.374;2023-05-01T06:39:22;94736.63;;;29.75;29.43
10462;BME280;5278;42.656;23.374;2023-05-01T06:41:50;94726.56;;;29.86;29.78
10462;BME280;5278;42.656;23.374;2023-05-01T06:44:17;94733.88;;;29.99;29.78
10462;BME280;5278;42.656;23.374;2023-05-01T06:46:44;94729.19;;;29.91;29.55
10462;BME280;5278;42.656;23.374;2023-05-01T06:49:11;94741.03;;;29.85;29.87
10462;BME280;5278;42.656;23.374;2023-05-01T06:51:37;94732.06;;;29.94;29.93
10462;BME280;5278;42.656;23.374;2023-05-01T06:54:04;94733.84;;;30.18;28.82
10462;BME280;5278;42.656;23.374;2023-05-01T06:56:31;94737.75;;;30.39;28.79
10462;BME280;5278;42.656;23.374;2023-05-01T06:59:00;94736.13;;;30.70;28.52
10462;BME280;5278;42.656;23.374;2023-05-01T07:01:28;94733.63;;;31.01;28.34
10462;BME280;5278;42.656;23.374;2023-05-01T07:03:55;94741.53;;;31.11;28.00
10462;BME280;5278;42.656;23.374;2023-05-01T07:06:21;94741.13;;;31.18;27.60
10462;BME280;5278;42.656;23.374;2023-05-01T07:08:48;94740.41;;;31.26;27.16
10462;BME280;5278;42.656;23.374;2023-05-01T07:11:16;94737.94;;;31.02;27.78
10462;BME280;5278;42.656;23.374;2023-05-01T07:13:43;94733.38;;;31.03;27.61
10462;BME280;5278;42.656;23.374;2023-05-01T07:16:11;94740.09;;;31.14;27.84
10462;BME280;5278;42.656;23.374;2023-05-01T07:18:38;94741.31;;;31.22;27.89
10462;BME280;5278;42.656;23.374;2023-05-01T07:21:05;94748.25;;;30.95;27.53
10462;BME280;5278;42.656;23.374;2023-05-01T07:23:34;94747.69;;;30.98;27.68
10462;BME280;5278;42.656;23.374;2023-05-01T07:26:01;94757.44;;;31.08;27.93
10462;BME280;5278;42.656;23.374;2023-05-01T07:28:28;94765.66;;;31.39;27.37
10462;BME280;5278;42.656;23.374;2023-05-01T07:30:55;94743.31;;;31.66;27.02
10462;BME280;5278;42.656;23.374;2023-05-01T07:33:23;94734.22;;;31.75;26.90
10462;BME280;5278;42.656;23.374;2023-05-01T07:35:52;94746.28;;;32.00;26.45
10462;BME280;5278;42.656;23.374;2023-05-01T07:38:19;94744.41;;;32.23;25.89
10462;BME280;5278;42.656;23.374;2023-05-01T07:40:46;94744.06;;;32.46;25.90
10462;BME280;5278;42.656;23.374;2023-05-01T07:43:13;94742.69;;;32.88;25.08
10462;BME280;5278;42.656;23.374;2023-05-01T07:45:40;94747.09;;;33.24;24.67
10462;BME280;5278;42.656;23.374;2023-05-01T07:48:07;94741.88;;;33.27;24.74
10462;BME280;5278;42.656;23.374;2023-05-01T07:50:35;94747.78;;;33.64;24.45
10462;BME280;5278;42.656;23.374;2023-05-01T07:53:04;94747.03;;;34.06;24.18
10462;BME280;5278;42.656;23.374;2023-05-01T07:55:31;94749.88;;;34.36;23.37
10462;BME280;5278;42.656;23.374;2023-05-01T07:57:58;94747.34;;;34.31;23.16
10462;BME280;5278;42.656;23.374;2023-05-01T08:00:24;94743.94;;;34.42;23.27
10462;BME280;5278;42.656;23.374;2023-05-01T08:02:51;94742.53;;;34.45;23.40
10462;BME280;5278;42.656;23.374;2023-05-01T08:05:18;94747.34;;;34.31;23.10
10462;BME280;5278;42.656;23.374;2023-05-01T08:07:46;94738.00;;;33.85;23.10
10462;BME280;5278;42.656;23.374;2023-05-01T08:10:14;94748.28;;;34.00;23.66
10462;BME280;5278;42.656;23.374;2023-05-01T08:12:40;94740.03;;;34.23;22.94
10462;BME280;5278;42.656;23.374;2023-05-01T08:15:08;94745.88;;;34.42;23.17
10462;BME280;5278;42.656;23.374;2023-05-01T08:17:35;94676.63;;;34.37;22.20
10462;BME280;5278;42.656;23.374;2023-05-01T08:20:03;94737.59;;;35.31;21.90
10462;BME280;5278;42.656;23.374;2023-05-01T08:22:29;94733.03;;;35.73;21.70
10462;BME280;5278;42.656;23.374;2023-05-01T08:24:58;94734.44;;;36.33;20.33
10462;BME280;5278;42.656;23.374;2023-05-01T08:27:25;94735.56;;;36.65;19.75
10462;BME280;5278;42.656;23.374;2023-05-01T08:29:52;94732.78;;;37.10;19.98
10462;BME280;5278;42.656;23.374;2023-05-01T08:32:18;94736.81;;;37.53;19.73
10462;BME280;5278;42.656;23.374;2023-05-01T08:34:45;94736.47;;;37.42;18.69
10462;BME280;5278;42.656;23.374;2023-05-01T08:37:12;94747.97;;;36.78;18.54
10462;BME280;5278;42.656;23.374;2023-05-01T08:39:39;94736.41;;;36.57;18.55
10462;BME280;5278;42.656;23.374;2023-05-01T08:42:07;94737.72;;;36.84;19.41
10462;BME280;5278;42.656;23.374;2023-05-01T08:44:37;94738.88;;;37.19;20.02
10462;BME280;5278;42.656;23.374;2023-05-01T08:47:10;94733.66;;;37.26;18.42
10462;BME280;5278;42.656;23.374;2023-05-01T08:49:41;94727.91;;;37.03;18.73
10462;BME280;5278;42.656;23.374;2023-05-01T08:52:09;94728.25;;;37.14;18.75
10462;BME280;5278;42.656;23.374;2023-05-01T08:54:38;94728.47;;;37.45;19.04
10462;BME280;5278;42.656;23.374;2023-05-01T08:57:10;94730.22;;;37.78;18.63
10462;BME280;5278;42.656;23.374;2023-05-01T08:59:38;94727.66;;;38.09;17.99
10462;BME280;5278;42.656;23.374;2023-05-01T09:02:06;94732.13;;;37.77;18.04
10462;BME280;5278;42.656;23.374;2023-05-01T09:04:35;94720.00;;;37.87;17.63
10462;BME280;5278;42.656;23.374;2023-05-01T09:07:02;94653.03;;;37.11;17.69
10462;BME280;5278;42.656;23.374;2023-05-01T09:09:30;94718.75;;;37.44;17.89
10462;BME280;5278;42.656;23.374;2023-05-01T09:12:00;94723.13;;;37.61;18.19
10462;BME280;5278;42.656;23.374;2023-05-01T09:14:33;94730.38;;;37.57;18.01
10462;BME280;5278;42.656;23.374;2023-05-01T09:17:00;94729.34;;;37.62;17.96
10462;BME280;5278;42.656;23.374;2023-05-01T09:19:27;94716.28;;;38.19;17.83
10462;BME280;5278;42.656;23.374;2023-05-01T09:21:54;94716.84;;;37.85;16.58
10462;BME280;5278;42.656;23.374;2023-05-01T09:24:23;94727.97;;;37.68;17.19
10462;BME280;5278;42.656;23.374;2023-05-01T09:26:51;94732.63;;;37.67;17.57
10462;BME280;5278;42.656;23.374;2023-05-01T09:29:39;94724.19;;;36.96;18.13
10462;BME280;5278;42.656;23.374;2023-05-01T09:32:13;94728.00;;;36.95;18.03
10462;BME280;5278;42.656;23.374;2023-05-01T09:34:40;94708.72;;;37.21;18.01
10462;BME280;5278;42.656;23.374;2023-05-01T09:37:10;94724.34;;;37.51;17.81
10462;BME280;5278;42.656;23.374;2023-05-01T09:39:37;94724.28;;;37.88;17.56
10462;BME280;5278;42.656;23.374;2023-05-01T09:42:04;94709.44;;;38.85;17.43
10462;BME280;5278;42.656;23.374;2023-05-01T09:44:41;94717.78;;;39.07;17.65
10462;BME280;5278;42.656;23.374;2023-05-01T09:47:09;94720.84;;;39.22;17.19
10462;BME280;5278;42.656;23.374;2023-05-01T09:49:44;94708.66;;;39.15;17.18
10462;BME280;5278;42.656;23.374;2023-05-01T09:52:12;94709.28;;;39.59;17.57
10462;BME280;5278;42.656;23.374;2023-05-01T09:54:40;94711.22;;;39.59;16.70
10462;BME280;5278;42.656;23.374;2023-05-01T09:57:07;94719.94;;;39.49;16.91
10462;BME280;5278;42.656;23.374;2023-05-01T09:59:34;94719.63;;;38.88;16.36
10462;BME280;5278;42.656;23.374;2023-05-01T10:02:02;94696.41;;;38.31;17.20
10462;BME280;5278;42.656;23.374;2023-05-01T10:04:30;94703.81;;;38.46;17.57
10462;BME280;5278;42.656;23.374;2023-05-01T10:06:57;94694.63;;;39.13;17.25
10462;BME280;5278;42.656;23.374;2023-05-01T10:09:28;94698.06;;;39.10;17.12
10462;BME280;5278;42.656;23.374;2023-05-01T10:11:55;94570.00;;;37.90;16.47
10462;BME280;5278;42.656;23.374;2023-05-01T10:14:23;94705.41;;;38.63;16.30
10462;BME280;5278;42.656;23.374;2023-05-01T10:16:52;94706.41;;;37.99;17.05
10462;BME280;5278;42.656;23.374;2023-05-01T10:19:22;94707.69;;;37.77;17.57
10462;BME280;5278;42.656;23.374;2023-05-01T10:21:49;94697.97;;;37.76;17.58
10462;BME280;5278;42.656;23.374;2023-05-01T10:24:17;94698.28;;;37.99;17.34
10462;BME280;5278;42.656;23.374;2023-05-01T10:26:47;94700.41;;;38.06;17.13
10462;BME280;5278;42.656;23.374;2023-05-01T10:29:14;94697.03;;;37.44;16.94
10462;BME280;5278;42.656;23.374;2023-05-01T10:31:41;94687.97;;;37.65;17.12
10462;BME280;5278;42.656;23.374;2023-05-01T10:34:09;94688.00;;;38.36;16.46
10462;BME280;5278;42.656;23.374;2023-05-01T10:36:42;94684.91;;;38.97;16.12
10462;BME280;5278;42.656;23.374;2023-05-01T10:39:31;94686.81;;;38.96;16.06
10462;BME280;5278;42.656;23.374;2023-05-01T10:42:02;94698.22;;;38.86;16.55
10462;BME280;5278;42.656;23.374;2023-05-01T10:44:30;94696.81;;;38.61;16.32
10462;BME280;5278;42.656;23.374;2023-05-01T10:46:58;94694.81;;;36.86;17.16
10462;BME280;5278;42.656;23.374;2023-05-01T10:52:28;94690.41;;;35.70;18.45
10462;BME280;5278;42.656;23.374;2023-05-01T10:55:32;94699.09;;;33.95;20.47
10462;BME280;5278;42.656;23.374;2023-05-01T10:57:59;94702.94;;;31.43;23.31
10462;BME280;5278;42.656;23.374;2023-05-01T11:00:26;94708.78;;;30.09;24.88
10462;BME280;5278;42.656;23.374;2023-05-01T11:06:06;94621.59;;;29.98;24.79
10462;BME280;5278;42.656;23.374;2023-05-01T11:08:35;94696.63;;;32.06;22.73
10462;BME280;5278;42.656;23.374;2023-05-01T11:14:06;94691.94;;;33.64;20.64
10462;BME280;5278;42.656;23.374;2023-05-01T11:16:42;94695.75;;;33.29;21.27
10462;BME280;5278;42.656;23.374;2023-05-01T11:19:42;94696.03;;;32.31;22.24
10462;BME280;5278;42.656;23.374;2023-05-01T11:21:59;94695.78;;;31.03;23.30
10462;BME280;5278;42.656;23.374;2023-05-01T11:24:33;94623.50;;;30.38;23.39
10462;BME280;5278;42.656;23.374;2023-05-01T11:27:00;94688.19;;;30.91;23.89
10462;BME280;5278;42.656;23.374;2023-05-01T11:29:30;94616.19;;;28.77;24.50
10462;BME280;5278;42.656;23.374;2023-05-01T11:31:58;94706.09;;;28.78;26.06
10462;BME280;5278;42.656;23.374;2023-05-01T11:34:25;94707.31;;;28.61;26.16
10462;BME280;5278;42.656;23.374;2023-05-01T11:36:52;94699.00;;;28.63;25.82
10462;BME280;5278;42.656;23.374;2023-05-01T11:39:19;94702.47;;;28.11;26.70
10462;BME280;5278;42.656;23.374;2023-05-01T11:41:48;94716.44;;;27.25;28.21
10462;BME280;5278;42.656;23.374;2023-05-01T11:44:16;94698.94;;;27.48;27.78
10462;BME280;5278;42.656;23.374;2023-05-01T11:46:43;94693.94;;;28.09;26.86
10462;BME280;5278;42.656;23.374;2023-05-01T11:49:10;94694.66;;;27.52;27.17
10462;BME280;5278;42.656;23.374;2023-05-01T11:51:37;94704.72;;;27.21;27.92
10462;BME280;5278;42.656;23.374;2023-05-01T11:54:05;94726.84;;;27.26;27.84
10462;BME280;5278;42.656;23.374;2023-05-01T11:56:33;94643.03;;;25.99;27.64
10462;BME280;5278;42.656;23.374;2023-05-01T11:59:10;94705.88;;;26.10;28.50
10462;BME280;5278;42.656;23.374;2023-05-01T12:01:38;94719.69;;;25.51;29.42
10462;BME280;5278;42.656;23.374;2023-05-01T12:04:06;94700.97;;;25.01;30.12
10462;BME280;5278;42.656;23.374;2023-05-01T12:06:37;94717.72;;;24.96;29.03
10462;BME280;5278;42.656;23.374;2023-05-01T12:09:09;94718.81;;;24.95;30.02
10462;BME280;5278;42.656;23.374;2023-05-01T12:11:37;94729.53;;;24.63;30.55
10462;BME280;5278;42.656;23.374;2023-05-01T12:14:04;94720.94;;;24.46;30.43
10462;BME280;5278;42.656;23.374;2023-05-01T12:16:33;94711.59;;;24.01;30.88
10462;BME280;5278;42.656;23.374;2023-05-01T12:19:00;94729.97;;;23.71;32.22
10462;BME280;5278;42.656;23.374;2023-05-01T12:21:27;94727.31;;;23.71;31.19
10462;BME280;5278;42.656;23.374;2023-05-01T12:23:56;94734.94;;;23.63;30.89
10462;BME280;5278;42.656;23.374;2023-05-01T12:26:32;94721.75;;;23.41;30.94
10462;BME280;5278;42.656;23.374;2023-05-01T12:29:01;94753.78;;;23.12;32.34
10462;BME280;5278;42.656;23.374;2023-05-01T12:31:29;94744.84;;;23.18;31.29
10462;BME280;5278;42.656;23.374;2023-05-01T12:33:58;94743.06;;;23.02;31.14
10462;BME280;5278;42.656;23.374;2023-05-01T12:36:30;94625.28;;;22.23;31.33
10462;BME280;5278;42.656;23.374;2023-05-01T12:38:58;94737.59;;;22.87;31.21
10462;BME280;5278;42.656;23.374;2023-05-01T12:41:36;94707.91;;;22.85;31.41
10462;BME280;5278;42.656;23.374;2023-05-01T12:44:18;94732.47;;;23.02;33.67
10462;BME280;5278;42.656;23.374;2023-05-01T12:46:52;94729.28;;;23.00;31.72
10462;BME280;5278;42.656;23.374;2023-05-01T12:49:21;94735.56;;;22.94;30.92
10462;BME280;5278;42.656;23.374;2023-05-01T12:51:49;94722.97;;;23.06;33.78
10462;BME280;5278;42.656;23.374;2023-05-01T12:54:20;94727.78;;;23.09;33.90
10462;BME280;5278;42.656;23.374;2023-05-01T12:56:47;94732.91;;;23.16;33.83
10462;BME280;5278;42.656;23.374;2023-05-01T12:59:22;94730.44;;;23.09;33.32
10462;BME280;5278;42.656;23.374;2023-05-01T13:01:55;94727.44;;;23.01;33.62
10462;BME280;5278;42.656;23.374;2023-05-01T13:04:25;94725.81;;;23.00;34.10
10462;BME280;5278;42.656;23.374;2023-05-01T13:06:52;94728.81;;;23.08;33.58
10462;BME280;5278;42.656;23.374;2023-05-01T13:09:20;94649.41;;;22.48;33.57
10462;BME280;5278;42.656;23.374;2023-05-01T13:11:56;94741.84;;;22.88;34.04
10462;BME280;5278;42.656;23.374;2023-05-01T13:14:23;94729.06;;;22.80;36.16
10462;BME280;5278;42.656;23.374;2023-05-01T13:16:50;94735.47;;;22.46;38.18
10462;BME280;5278;42.656;23.374;2023-05-01T13:19:25;94732.94;;;22.34;37.97
10462;BME280;5278;42.656;23.374;2023-05-01T13:21:53;94755.66;;;22.52;38.12